createdAt,value
2018-11-26T00:00:52.391Z,22.00
2018-11-26T00:03:21.128Z,22.57
2018-11-26T00:05:50.059Z,21.50
2018-11-26T00:08:18.670Z,22.23
2018-11-26T00:11:29.726Z,21.63
2018-11-26T00:13:58.440Z,22.60
2018-11-26T00:16:27.124Z,21.87
2018-11-26T00:18:55.748Z,21.17
2018-11-26T00:21:24.393Z,20.17
2018-11-26T00:23:53.065Z,21.37
2018-11-26T00:26:21.713Z,21.00
2018-11-26T00:28:50.348Z,23.30
2018-11-26T00:31:18.964Z,23.30
2018-11-26T00:33:47.595Z,21.37
2018-11-26T00:36:16.226Z,21.53
2018-11-26T00:38:44.864Z,22.50
2018-11-26T00:41:13.472Z,22.47
2018-11-26T00:43:42.108Z,22.27
2018-11-26T00:46:10.712Z,22.73
2018-11-26T00:48:39.310Z,21.30
2018-11-26T00:51:08.010Z,23.73
2018-11-26T00:53:36.662Z,21.90
2018-11-26T00:56:05.720Z,21.57
2018-11-26T00:58:34.322Z,21.30
2018-11-26T01:01:03.029Z,21.97
2018-11-26T01:03:31.624Z,21.37
2018-11-26T01:06:00.259Z,21.50
2018-11-26T01:08:28.886Z,20.97
2018-11-26T01:10:57.509Z,22.13
2018-11-26T01:13:26.111Z,22.20
2018-11-26T01:15:54.759Z,21.67
2018-11-26T01:18:23.415Z,21.00
2018-11-26T01:20:52.024Z,22.93
2018-11-26T01:23:20.667Z,19.83
2018-11-26T01:25:49.264Z,20.87
2018-11-26T01:28:17.911Z,20.90
2018-11-26T01:30:46.533Z,21.03
2018-11-26T01:33:15.124Z,22.03
2018-11-26T01:35:43.800Z,21.80
2018-11-26T01:38:12.383Z,21.40
2018-11-26T01:40:46.325Z,21.10
2018-11-26T01:43:14.962Z,22.33
2018-11-26T01:45:43.561Z,21.20
2018-11-26T01:48:12.163Z,22.30
2018-11-26T01:50:40.785Z,22.00
2018-11-26T01:53:09.555Z,21.33
2018-11-26T01:55:38.219Z,20.87
2018-11-26T01:58:06.904Z,21.03
2018-11-26T02:00:35.553Z,21.23
2018-11-26T02:03:04.220Z,21.73
2018-11-26T02:05:32.821Z,21.37
2018-11-26T02:08:01.445Z,21.03
2018-11-26T02:10:30.094Z,21.70
2018-11-26T02:12:58.721Z,20.97
2018-11-26T02:15:42.495Z,20.40
2018-11-26T02:18:11.669Z,21.53
2018-11-26T02:20:40.426Z,20.40
2018-11-26T02:23:09.123Z,21.30
2018-11-26T02:25:37.982Z,20.17
2018-11-26T02:28:07.475Z,19.77
2018-11-26T02:30:36.255Z,20.70
2018-11-26T02:33:05.010Z,21.57
2018-11-26T02:35:33.639Z,20.97
2018-11-26T02:38:02.243Z,21.70
2018-11-26T02:40:34.655Z,20.70
2018-11-26T02:43:03.277Z,20.37
2018-11-26T02:45:31.927Z,19.80
2018-11-26T02:48:00.625Z,19.33
2018-11-26T02:50:29.411Z,22.33
2018-11-26T02:52:58.149Z,21.80
2018-11-26T02:55:26.841Z,22.87
2018-11-26T02:57:55.589Z,21.43
2018-11-26T03:00:24.345Z,21.50
2018-11-26T03:02:53.032Z,21.17
2018-11-26T03:05:26.372Z,20.50
2018-11-26T03:07:55.096Z,20.27
2018-11-26T03:10:24.107Z,19.70
2018-11-26T03:12:52.928Z,20.90
2018-11-26T03:15:21.611Z,20.53
2018-11-26T03:17:50.332Z,22.67
2018-11-26T03:20:19.008Z,21.07
2018-11-26T03:22:47.751Z,22.50
2018-11-26T03:25:16.451Z,21.63
2018-11-26T03:27:45.168Z,23.00
2018-11-26T03:30:19.342Z,22.20
2018-11-26T03:32:48.010Z,22.20
2018-11-26T03:35:16.618Z,22.10
2018-11-26T03:37:45.255Z,24.20
2018-11-26T03:40:14.499Z,25.03
2018-11-26T03:42:43.994Z,23.83
2018-11-26T03:45:16.016Z,22.23
2018-11-26T03:47:44.687Z,23.13
2018-11-26T03:50:13.973Z,22.97
2018-11-26T03:52:44.381Z,22.57
2018-11-26T03:55:13.455Z,22.00
2018-11-26T03:57:42.156Z,21.67
2018-11-26T04:00:14.393Z,21.40
2018-11-26T04:02:43.075Z,23.50
2018-11-26T04:05:12.198Z,23.33
2018-11-26T04:07:41.033Z,23.27
2018-11-26T04:10:10.973Z,22.93
2018-11-26T04:12:39.676Z,20.60
2018-11-26T04:15:10.293Z,22.67
2018-11-26T04:17:38.939Z,21.03
2018-11-26T04:20:08.649Z,21.90
2018-11-26T04:22:37.349Z,21.37
2018-11-26T04:25:07.378Z,20.33
2018-11-26T04:27:36.170Z,22.47
2018-11-26T04:30:06.120Z,20.90
2018-11-26T04:32:34.795Z,20.50
2018-11-26T04:35:03.488Z,21.03
2018-11-26T04:37:32.144Z,19.17
2018-11-26T04:40:00.848Z,20.60
2018-11-26T04:42:29.493Z,21.47
2018-11-26T04:44:58.147Z,18.70
2018-11-26T04:47:26.768Z,18.57
2018-11-26T04:49:55.441Z,19.23
2018-11-26T04:52:24.124Z,20.70
2018-11-26T04:54:52.759Z,20.70
2018-11-26T04:57:21.408Z,22.43
2018-11-26T04:59:50.041Z,19.60
2018-11-26T05:02:18.723Z,22.23
2018-11-26T05:04:47.340Z,22.10
2018-11-26T05:07:16.028Z,21.20
2018-11-26T05:09:44.656Z,20.97
2018-11-26T05:12:13.313Z,20.80
2018-11-26T05:14:41.972Z,21.40
2018-11-26T05:17:10.625Z,20.37
2018-11-26T05:19:39.296Z,22.10
2018-11-26T05:22:07.944Z,21.90
2018-11-26T05:24:36.653Z,22.97
2018-11-26T05:27:05.504Z,22.20
2018-11-26T05:29:34.194Z,22.20
2018-11-26T05:32:02.820Z,22.43
2018-11-26T05:34:31.482Z,24.53
2018-11-26T05:37:00.097Z,22.43
2018-11-26T05:39:28.792Z,21.83
2018-11-26T05:41:57.407Z,23.30
2018-11-26T05:44:26.076Z,23.50
2018-11-26T05:46:54.701Z,23.83
2018-11-26T05:49:23.444Z,22.63
2018-11-26T05:51:52.165Z,25.80
2018-11-26T05:54:20.853Z,23.57
2018-11-26T05:56:49.526Z,23.93
2018-11-26T05:59:18.183Z,23.30
2018-11-26T06:01:46.853Z,25.10
2018-11-26T06:04:15.497Z,25.80
2018-11-26T06:06:44.139Z,23.67
2018-11-26T06:09:12.827Z,24.77
2018-11-26T06:11:41.503Z,24.17
2018-11-26T06:14:10.184Z,24.70
2018-11-26T06:16:38.808Z,25.40
2018-11-26T06:19:07.597Z,28.90
2018-11-26T06:21:36.439Z,25.97
2018-11-26T06:24:05.184Z,26.07
2018-11-26T06:26:33.908Z,25.43
2018-11-26T06:29:02.555Z,25.10
2018-11-26T06:31:31.218Z,26.37
2018-11-26T06:33:59.844Z,24.73
2018-11-26T06:36:28.501Z,28.23
2018-11-26T06:38:57.129Z,24.93
2018-11-26T06:41:25.831Z,25.67
2018-11-26T06:43:54.485Z,25.90
2018-11-26T06:46:23.142Z,25.20
2018-11-26T06:48:51.784Z,26.63
2018-11-26T06:51:20.468Z,27.30
2018-11-26T06:53:49.121Z,27.00
2018-11-26T06:56:17.768Z,26.90
2018-11-26T06:58:46.411Z,29.30
2018-11-26T07:01:15.079Z,27.50
2018-11-26T07:03:43.744Z,27.87
2018-11-26T07:06:12.377Z,24.70
2018-11-26T07:08:41.007Z,25.90
2018-11-26T07:11:09.650Z,25.53
2018-11-26T07:13:38.288Z,25.93
2018-11-26T07:16:07.029Z,26.73
2018-11-26T07:18:35.869Z,25.60
2018-11-26T07:21:04.770Z,24.00
2018-11-26T07:23:33.441Z,25.47
2018-11-26T07:26:02.387Z,24.70
2018-11-26T07:28:31.077Z,25.10
2018-11-26T07:30:59.705Z,24.83
2018-11-26T07:33:28.320Z,25.10
2018-11-26T07:35:57.032Z,25.07
2018-11-26T07:38:25.640Z,23.33
2018-11-26T07:40:54.648Z,22.30
2018-11-26T07:43:23.278Z,23.30
2018-11-26T07:45:51.913Z,23.03
2018-11-26T07:48:20.548Z,23.00
2018-11-26T07:50:49.206Z,22.33
2018-11-26T07:53:17.861Z,21.07
2018-11-26T07:55:46.468Z,22.40
2018-11-26T07:58:15.130Z,20.17
2018-11-26T08:00:43.773Z,21.10
2018-11-26T08:03:12.471Z,21.27
2018-11-26T08:05:41.075Z,21.50
2018-11-26T08:08:09.785Z,21.57
2018-11-26T08:10:38.430Z,20.80
2018-11-26T08:13:07.177Z,20.37
2018-11-26T08:15:35.794Z,20.50
2018-11-26T08:18:04.465Z,21.60
2018-11-26T08:20:33.088Z,20.77
2018-11-26T08:23:01.725Z,20.53
2018-11-26T08:25:30.333Z,21.27
2018-11-26T08:27:58.977Z,18.60
2018-11-26T08:30:28.116Z,20.60
2018-11-26T08:32:58.923Z,19.03
2018-11-26T08:35:27.651Z,20.77
2018-11-26T08:38:02.280Z,20.07
2018-11-26T08:40:36.231Z,21.47
2018-11-26T08:43:11.940Z,20.17
2018-11-26T08:45:47.616Z,20.07
2018-11-26T08:48:20.421Z,20.60
2018-11-26T08:50:49.129Z,21.20
2018-11-26T08:53:17.837Z,20.63
2018-11-26T08:55:46.805Z,19.83
2018-11-26T08:58:15.437Z,22.00
2018-11-26T09:00:46.164Z,19.03
2018-11-26T09:03:20.806Z,20.23
2018-11-26T09:06:04.734Z,20.63
2018-11-26T09:08:35.929Z,21.07
2018-11-26T09:11:05.397Z,20.20
2018-11-26T09:13:33.985Z,22.77
2018-11-26T09:16:02.627Z,19.87
2018-11-26T09:18:31.244Z,19.63
2018-11-26T09:20:59.884Z,21.00
2018-11-26T09:23:28.537Z,19.67
2018-11-26T09:25:57.182Z,19.37
2018-11-26T09:28:25.795Z,18.90
2018-11-26T09:30:54.411Z,19.67
2018-11-26T09:33:23.100Z,19.80
2018-11-26T09:35:51.703Z,21.90
2018-11-26T09:38:20.351Z,20.20
2018-11-26T09:40:48.996Z,22.73
2018-11-26T09:43:17.627Z,20.20
2018-11-26T09:45:46.249Z,21.43
2018-11-26T09:48:14.886Z,21.47
2018-11-26T09:50:43.545Z,20.23
2018-11-26T09:53:12.228Z,21.47
2018-11-26T09:55:40.863Z,22.60
2018-11-26T09:58:09.535Z,23.93
2018-11-26T10:00:38.257Z,21.43
2018-11-26T10:03:06.935Z,21.63
2018-11-26T10:05:35.609Z,20.90
2018-11-26T10:08:04.248Z,21.63
2018-11-26T10:10:32.893Z,20.60
2018-11-26T10:13:01.524Z,21.20
2018-11-26T10:15:30.172Z,20.73
2018-11-26T10:17:58.804Z,19.70
2018-11-26T10:20:27.461Z,20.63
2018-11-26T10:22:56.101Z,21.17
2018-11-26T10:25:24.857Z,20.63
2018-11-26T10:27:53.499Z,22.10
2018-11-26T10:30:23.487Z,20.73
2018-11-26T10:32:52.817Z,20.33
2018-11-26T10:35:21.917Z,20.60
2018-11-26T10:37:50.663Z,18.67
2018-11-26T10:40:21.633Z,21.43
2018-11-26T10:42:50.325Z,19.83
2018-11-26T10:45:19.846Z,19.77
2018-11-26T10:47:48.534Z,19.50
2018-11-26T10:50:18.457Z,21.20
2018-11-26T10:52:48.663Z,19.30
2018-11-26T10:55:21.148Z,19.00
2018-11-26T10:57:49.773Z,18.27
2018-11-26T11:00:23.770Z,20.10
2018-11-26T11:02:52.660Z,21.07
2018-11-26T11:05:21.324Z,20.50
2018-11-26T11:07:49.952Z,19.97
2018-11-26T11:10:21.886Z,19.33
2018-11-26T11:12:50.640Z,19.30
2018-11-26T11:15:19.290Z,20.77
2018-11-26T11:17:47.960Z,20.30
2018-11-26T11:20:22.343Z,20.63
2018-11-26T11:22:50.989Z,22.30
2018-11-26T11:25:20.224Z,22.93
2018-11-26T11:27:49.149Z,20.40
2018-11-26T11:30:20.666Z,22.03
2018-11-26T11:32:49.320Z,19.87
2018-11-26T11:35:18.461Z,21.60
2018-11-26T11:37:48.078Z,20.87
2018-11-26T11:40:23.528Z,20.37
2018-11-26T11:42:52.632Z,20.37
2018-11-26T11:45:21.717Z,21.70
2018-11-26T11:47:50.401Z,21.30
2018-11-26T11:50:19.868Z,20.10
2018-11-26T11:52:48.690Z,19.30
2018-11-26T11:55:18.369Z,20.67
2018-11-26T11:57:47.029Z,19.00
2018-11-26T12:00:25.222Z,19.23
2018-11-26T12:02:53.888Z,21.10
2018-11-26T12:05:22.507Z,19.83
2018-11-26T12:07:51.157Z,18.37
2018-11-26T12:10:19.777Z,19.17
2018-11-26T12:12:48.416Z,19.80
2018-11-26T12:15:17.573Z,19.87
2018-11-26T12:17:47.105Z,20.27
2018-11-26T12:20:15.942Z,20.70
2018-11-26T12:22:45.105Z,19.10
2018-11-26T12:25:18.506Z,19.30
2018-11-26T12:27:47.113Z,17.90
2018-11-26T12:30:23.602Z,18.07
2018-11-26T12:32:52.229Z,18.87
2018-11-26T12:35:20.894Z,17.60
2018-11-26T12:37:49.509Z,17.43
2018-11-26T12:40:21.101Z,17.77
2018-11-26T12:42:50.803Z,18.57
2018-11-26T12:45:20.948Z,18.30
2018-11-26T12:47:49.595Z,17.20
2018-11-26T12:50:18.330Z,19.40
2018-11-26T12:52:46.945Z,16.90
2018-11-26T12:55:16.736Z,18.83
2018-11-26T12:57:46.290Z,19.20
2018-11-26T13:00:26.968Z,18.17
2018-11-26T13:02:59.746Z,18.30
2018-11-26T13:05:28.410Z,18.40
2018-11-26T13:07:57.042Z,18.20
2018-11-26T13:10:25.718Z,17.87
2018-11-26T13:12:54.350Z,18.40
2018-11-26T13:15:25.126Z,20.13
2018-11-26T13:17:53.788Z,20.07
2018-11-26T13:20:25.685Z,18.20
2018-11-26T13:22:54.645Z,18.10
2018-11-26T13:25:25.465Z,19.80
2018-11-26T13:27:56.461Z,17.70
2018-11-26T13:30:35.207Z,19.23
2018-11-26T13:33:06.240Z,18.30
2018-11-26T13:35:34.912Z,18.50
2018-11-26T13:38:03.542Z,20.10
2018-11-26T13:40:32.170Z,19.50
2018-11-26T13:43:00.804Z,19.17
2018-11-26T13:45:34.913Z,18.90
2018-11-26T13:48:04.181Z,18.47
2018-11-26T13:50:35.734Z,19.67
2018-11-26T13:53:04.447Z,19.40
2018-11-26T13:55:33.134Z,18.67
2018-11-26T13:58:01.774Z,17.50
2018-11-26T14:00:30.421Z,17.63
2018-11-26T14:02:59.093Z,20.00
2018-11-26T14:05:27.740Z,20.97
2018-11-26T14:07:56.417Z,19.70
2018-11-26T14:10:26.828Z,33.93
2018-11-26T14:12:58.944Z,27.30
2018-11-26T14:15:27.665Z,22.10
2018-11-26T14:17:56.290Z,21.27
2018-11-26T14:20:24.957Z,20.40
2018-11-26T14:22:53.599Z,19.53
2018-11-26T14:25:22.225Z,19.73
2018-11-26T14:27:51.022Z,19.00
2018-11-26T14:30:23.210Z,20.60
2018-11-26T14:32:51.929Z,19.80
2018-11-26T14:35:20.690Z,19.73
2018-11-26T14:37:51.553Z,18.77
2018-11-26T14:40:28.315Z,19.50
2018-11-26T14:42:56.948Z,19.90
2018-11-26T14:45:25.609Z,21.57
2018-11-26T14:47:54.283Z,20.13
2018-11-26T14:50:22.945Z,21.10
2018-11-26T14:52:51.561Z,21.03
2018-11-26T14:55:25.466Z,21.23
2018-11-26T14:57:54.132Z,19.00
2018-11-26T15:00:22.879Z,20.80
2018-11-26T15:02:51.615Z,20.17
2018-11-26T15:05:20.273Z,19.67
2018-11-26T15:07:49.195Z,19.60
2018-11-26T15:10:18.956Z,19.03
2018-11-26T15:12:47.750Z,18.33
2018-11-26T15:15:18.487Z,21.57
2018-11-26T15:17:47.484Z,20.77
2018-11-26T15:20:21.670Z,19.63
2018-11-26T15:22:50.897Z,21.10
2018-11-26T15:25:21.886Z,19.37
2018-11-26T15:27:51.394Z,20.57
2018-11-26T15:30:20.980Z,20.17
2018-11-26T15:32:50.044Z,20.10
2018-11-26T15:35:21.126Z,20.20
2018-11-26T15:37:49.751Z,19.83
2018-11-26T15:40:19.659Z,19.00
2018-11-26T15:42:48.321Z,19.60
2018-11-26T15:45:20.808Z,20.47
2018-11-26T15:47:50.142Z,19.17
2018-11-26T15:50:18.818Z,19.80
2018-11-26T15:52:47.445Z,19.63
2018-11-26T15:55:17.978Z,18.90
2018-11-26T15:57:46.695Z,18.20
2018-11-26T16:00:20.395Z,19.63
2018-11-26T16:02:49.131Z,19.47
2018-11-26T16:05:19.095Z,19.77
2018-11-26T16:07:49.616Z,18.40
2018-11-26T16:10:18.291Z,19.33
2018-11-26T16:12:49.005Z,19.87
2018-11-26T16:15:21.831Z,18.83
2018-11-26T16:17:51.003Z,18.77
2018-11-26T16:20:21.033Z,19.10
2018-11-26T16:22:49.704Z,20.00
2018-11-26T16:25:19.843Z,21.37
2018-11-26T16:27:48.464Z,22.07
2018-11-26T16:30:17.941Z,21.70
2018-11-26T16:32:48.860Z,19.50
2018-11-26T16:35:21.242Z,20.40
2018-11-26T16:37:49.864Z,20.80
2018-11-26T16:40:18.613Z,21.63
2018-11-26T16:42:47.281Z,19.20
2018-11-26T16:45:19.894Z,20.00
2018-11-26T16:47:49.948Z,20.40
2018-11-26T16:50:19.714Z,20.03
2018-11-26T16:52:48.386Z,21.80
2018-11-26T16:55:17.572Z,20.23
2018-11-26T16:57:46.285Z,20.63
2018-11-26T17:00:20.201Z,20.37
2018-11-26T17:02:50.130Z,22.60
2018-11-26T17:05:20.537Z,20.93
2018-11-26T17:07:49.150Z,21.33
2018-11-26T17:10:17.818Z,19.73
2018-11-26T17:12:46.458Z,21.87
2018-11-26T17:15:16.586Z,23.50
2018-11-26T17:17:45.350Z,21.20
2018-11-26T17:20:14.974Z,20.77
2018-11-26T17:22:43.681Z,22.50
2018-11-26T17:25:13.389Z,22.20
2018-11-26T17:27:42.707Z,21.60
2018-11-26T17:30:13.780Z,20.97
2018-11-26T17:32:42.413Z,22.23
2018-11-26T17:35:12.733Z,23.03
2018-11-26T17:37:43.052Z,22.10
2018-11-26T17:40:16.023Z,21.17
2018-11-26T17:42:45.613Z,23.80
2018-11-26T17:45:14.829Z,22.23
2018-11-26T17:47:46.554Z,22.40
2018-11-26T17:50:22.705Z,22.20
2018-11-26T17:52:51.368Z,22.00
2018-11-26T17:55:20.054Z,22.80
2018-11-26T17:57:48.694Z,21.67
2018-11-26T18:00:19.989Z,24.60
2018-11-26T18:02:48.631Z,21.50
2018-11-26T18:05:19.044Z,21.30
2018-11-26T18:07:49.823Z,20.23
2018-11-26T18:10:18.486Z,21.50
2018-11-26T18:12:47.129Z,20.17
2018-11-26T18:15:15.982Z,18.60
2018-11-26T18:17:45.835Z,19.97
2018-11-26T18:20:16.961Z,19.63
2018-11-26T18:22:48.159Z,20.37
2018-11-26T18:25:17.428Z,20.17
2018-11-26T18:27:50.184Z,19.80
2018-11-26T18:30:23.595Z,18.67
2018-11-26T18:32:52.224Z,20.33
2018-11-26T18:35:23.131Z,20.37
2018-11-26T18:37:57.352Z,19.20
2018-11-26T18:40:26.513Z,21.10
2018-11-26T18:42:55.291Z,20.60
2018-11-26T18:45:23.982Z,19.90
2018-11-26T18:47:53.191Z,24.53
2018-11-26T18:50:22.415Z,23.30
2018-11-26T18:52:51.661Z,22.70
2018-11-26T18:56:57.211Z,23.30
2018-11-26T18:59:25.902Z,22.80
2018-11-26T19:01:54.570Z,23.17
2018-11-26T19:04:23.287Z,23.03
2018-11-26T19:09:34.846Z,24.13
2018-11-26T19:12:04.150Z,27.33
2018-11-26T19:14:32.263Z,27.63
2018-11-26T19:17:01.031Z,27.23
2018-11-26T19:19:29.699Z,30.40
2018-11-26T19:21:58.510Z,32.80
2018-11-26T19:24:27.218Z,31.33
2018-11-26T19:26:56.078Z,29.97
2018-11-26T19:29:24.792Z,30.33
2018-11-26T19:31:55.982Z,30.33
2018-11-26T19:34:22.245Z,29.73
2018-11-26T19:36:50.921Z,30.50
2018-11-26T19:39:19.615Z,30.30
2018-11-26T19:41:48.293Z,30.40
2018-11-26T19:44:16.938Z,32.10
2018-11-26T19:46:45.723Z,34.13
2018-11-26T19:49:14.391Z,32.30
2018-11-26T19:51:43.157Z,33.77
2018-11-26T19:54:11.814Z,33.87
2018-11-26T19:56:40.529Z,33.83
2018-11-26T19:59:09.249Z,34.93
2018-11-26T20:01:38.146Z,31.20
2018-11-26T20:04:21.113Z,34.90
2018-11-26T20:06:49.828Z,32.03
2018-11-26T20:09:18.569Z,33.60
2018-11-26T20:11:47.234Z,35.47
2018-11-26T20:14:21.279Z,34.73
2018-11-26T20:16:45.528Z,34.50
2018-11-26T20:19:14.200Z,34.40
2018-11-26T20:21:42.837Z,32.83
2018-11-26T20:24:11.507Z,33.93
2018-11-26T20:26:40.142Z,34.17
2018-11-26T20:29:08.877Z,33.03
2018-11-26T20:31:37.545Z,33.67
2018-11-26T20:34:06.950Z,32.70
2018-11-26T20:36:35.582Z,36.57
2018-11-26T20:39:06.160Z,32.97
2018-11-26T20:41:34.792Z,35.10
2018-11-26T20:44:03.488Z,34.03
2018-11-26T20:46:32.112Z,35.10
2018-11-26T20:49:00.793Z,34.50
2018-11-26T20:51:29.794Z,34.10
2018-11-26T20:53:58.437Z,35.77
2018-11-26T20:56:27.082Z,34.53
2018-11-26T20:58:55.757Z,36.50
2018-11-26T21:01:24.427Z,35.30
2018-11-26T21:03:53.120Z,36.70
2018-11-26T21:06:21.770Z,34.03
2018-11-26T21:08:50.594Z,36.80
2018-11-26T21:11:19.266Z,35.87
2018-11-26T21:13:47.929Z,35.53
2018-11-26T21:16:16.572Z,35.10
2018-11-26T21:18:45.249Z,35.43
2018-11-26T21:21:13.915Z,36.03
2018-11-26T21:23:42.660Z,35.93
2018-11-26T21:26:11.348Z,36.00
2018-11-26T21:28:40.025Z,36.93
2018-11-26T21:31:08.685Z,35.80
2018-11-26T21:33:37.371Z,34.03
2018-11-26T21:36:06.449Z,34.53
2018-11-26T21:38:38.572Z,39.00
2018-11-26T21:41:07.341Z,36.90
2018-11-26T21:43:35.975Z,36.40
2018-11-26T21:46:04.876Z,36.27
2018-11-26T21:48:33.497Z,35.37
2018-11-26T21:51:02.397Z,34.80
2018-11-26T21:53:31.030Z,34.77
2018-11-26T21:56:00.172Z,36.33
2018-11-26T21:58:28.802Z,34.57
2018-11-26T22:00:58.721Z,34.80
2018-11-26T22:03:30.574Z,35.37
2018-11-26T22:05:56.062Z,35.43
2018-11-26T22:08:24.741Z,37.00
2018-11-26T22:10:53.425Z,38.50
2018-11-26T22:13:22.437Z,36.27
2018-11-26T22:15:51.154Z,34.10
2018-11-26T22:18:19.857Z,34.40
2018-11-26T22:20:48.528Z,37.27
2018-11-26T22:23:17.270Z,38.90
2018-11-26T22:25:45.927Z,37.70
2018-11-26T22:28:14.652Z,35.47
2018-11-26T22:30:43.306Z,36.40
2018-11-26T22:33:12.022Z,36.80
2018-11-26T22:35:40.686Z,37.10
2018-11-26T22:38:09.372Z,37.40
2018-11-26T22:40:38.144Z,36.10
2018-11-26T22:43:12.373Z,36.77
2018-11-26T22:45:41.026Z,37.40
2018-11-26T22:48:11.089Z,39.10
2018-11-26T22:50:42.905Z,35.23
2018-11-26T22:53:11.603Z,33.80
2018-11-26T22:55:40.344Z,37.60
2018-11-26T22:58:11.501Z,37.63
2018-11-26T23:00:49.850Z,35.17
2018-11-26T23:03:19.681Z,37.00
2018-11-26T23:05:48.332Z,37.30
2018-11-26T23:08:16.990Z,36.87
2018-11-26T23:10:47.037Z,37.63
2018-11-26T23:15:58.919Z,35.33
2018-11-26T23:18:27.565Z,34.73
2018-11-26T23:20:56.176Z,37.87
2018-11-26T23:23:27.924Z,35.63
2018-11-26T23:25:56.565Z,36.27
2018-11-26T23:28:25.226Z,33.40
2018-11-26T23:30:53.818Z,33.57
2018-11-26T23:33:22.448Z,37.00
2018-11-26T23:35:51.083Z,31.97
2018-11-26T23:38:19.741Z,34.13
2018-11-26T23:40:48.363Z,36.37
2018-11-26T23:43:17.006Z,32.80
2018-11-26T23:45:47.117Z,35.07
2018-11-26T23:48:16.957Z,37.20
2018-11-26T23:50:47.443Z,34.43
2018-11-26T23:53:16.071Z,38.60
2018-11-26T23:55:44.683Z,34.37
2018-11-26T23:58:13.321Z,34.20
